createdAt,value
2023-05-20T00:02:16.461Z,2.78
2023-05-20T00:04:44.047Z,3.28
2023-05-20T00:09:38.973Z,3.10
2023-05-20T00:12:06.413Z,3.05
2023-05-20T00:14:33.101Z,3.22
2023-05-20T00:16:59.954Z,3.45
2023-05-20T00:19:26.821Z,3.28
2023-05-20T00:21:53.641Z,3.60
2023-05-20T00:24:20.294Z,3.05
2023-05-20T00:26:46.959Z,3.00
2023-05-20T00:29:13.721Z,3.35
2023-05-20T00:31:40.588Z,3.45
2023-05-20T00:34:07.390Z,3.47
2023-05-20T00:36:35.684Z,3.15
2023-05-20T00:39:02.624Z,3.80
2023-05-20T00:43:56.939Z,3.25
2023-05-20T00:46:27.128Z,3.10
2023-05-20T00:48:53.982Z,3.50
2023-05-20T00:53:49.008Z,3.30
2023-05-20T00:58:42.673Z,3.33
2023-05-20T01:03:37.124Z,3.28
2023-05-20T01:06:03.981Z,3.63
2023-05-20T01:08:30.657Z,3.70
2023-05-20T01:11:06.726Z,3.42
2023-05-20T01:13:36.430Z,3.83
2023-05-20T01:16:04.064Z,3.67
2023-05-20T01:18:31.931Z,3.28
2023-05-20T01:21:01.754Z,3.40
2023-05-20T01:26:10.606Z,3.70
2023-05-20T01:28:38.896Z,3.80
2023-05-20T01:31:07.007Z,4.10
2023-05-20T01:33:36.210Z,3.38
2023-05-20T01:36:03.184Z,3.58
2023-05-20T01:40:58.796Z,3.63
2023-05-20T01:45:54.010Z,3.42
2023-05-20T01:48:21.477Z,4.07
2023-05-20T01:50:48.122Z,3.55
2023-05-20T01:53:15.001Z,3.90
2023-05-20T01:55:41.866Z,3.88
2023-05-20T01:58:08.580Z,4.85
2023-05-20T02:00:36.362Z,3.67
2023-05-20T02:03:04.224Z,3.80
2023-05-20T02:05:31.163Z,4.15
2023-05-20T02:07:58.379Z,4.10
2023-05-20T02:10:25.054Z,4.22
2023-05-20T02:12:51.782Z,4.20
2023-05-20T02:15:18.525Z,4.53
2023-05-20T02:17:45.315Z,4.60
2023-05-20T02:20:14.209Z,4.50
2023-05-20T02:22:41.131Z,4.35
2023-05-20T02:25:08.544Z,4.53
2023-05-20T02:27:36.749Z,4.20
2023-05-20T02:30:03.533Z,4.65
2023-05-20T02:32:30.276Z,4.55
2023-05-20T02:34:56.948Z,4.43
2023-05-20T02:37:23.709Z,4.75
2023-05-20T02:39:50.615Z,4.93
2023-05-20T02:42:17.376Z,4.43
2023-05-20T02:44:44.042Z,4.55
2023-05-20T02:49:37.819Z,4.38
2023-05-20T02:52:04.892Z,4.63
2023-05-20T02:54:31.608Z,4.90
2023-05-20T02:56:58.513Z,5.00
2023-05-20T02:59:25.189Z,4.85
2023-05-20T03:01:52.203Z,5.00
2023-05-20T03:04:19.424Z,4.90
2023-05-20T03:09:15.676Z,4.32
2023-05-20T03:11:42.757Z,4.53
2023-05-20T03:14:09.441Z,4.63
2023-05-20T03:16:36.208Z,4.97
2023-05-20T03:19:02.940Z,4.75
2023-05-20T03:21:29.834Z,5.68
2023-05-20T03:23:56.644Z,5.13
2023-05-20T03:26:25.861Z,4.93
2023-05-20T03:28:52.672Z,4.90
2023-05-20T03:31:19.607Z,5.40
2023-05-20T03:33:46.398Z,4.93
2023-05-20T03:36:13.386Z,4.63
2023-05-20T03:38:40.109Z,4.97
2023-05-20T03:41:07.114Z,4.97
2023-05-20T03:43:34.110Z,5.53
2023-05-20T03:46:01.234Z,5.20
2023-05-20T03:48:28.709Z,4.93
2023-05-20T03:50:55.586Z,4.80
2023-05-20T03:53:22.462Z,5.10
2023-05-20T03:55:49.175Z,5.22
2023-05-20T03:58:16.329Z,4.97
2023-05-20T04:00:43.042Z,5.25
2023-05-20T04:03:10.756Z,5.80
2023-05-20T04:05:37.607Z,6.22
2023-05-20T04:10:37.293Z,5.70
2023-05-20T04:13:04.308Z,5.80
2023-05-20T04:15:30.980Z,6.28
2023-05-20T04:17:58.888Z,6.10
2023-05-20T04:20:25.715Z,5.50
2023-05-20T04:22:55.469Z,5.55
2023-05-20T04:25:22.493Z,5.38
2023-05-20T04:27:49.958Z,5.93
2023-05-20T04:30:21.917Z,5.28
2023-05-20T04:32:50.959Z,6.05
2023-05-20T04:35:18.254Z,5.60
2023-05-20T04:37:49.478Z,5.10
2023-05-20T04:40:17.280Z,6.00
2023-05-20T04:42:45.023Z,5.60
2023-05-20T04:45:12.603Z,5.78
2023-05-20T04:47:42.139Z,5.95
2023-05-20T04:50:12.376Z,5.35
2023-05-20T04:52:43.353Z,5.90
2023-05-20T04:55:11.984Z,5.68
2023-05-20T04:57:42.893Z,5.72
2023-05-20T05:00:10.892Z,6.15
2023-05-20T05:05:05.950Z,5.45
2023-05-20T05:07:32.859Z,6.30
2023-05-20T05:09:59.567Z,5.95
2023-05-20T05:12:28.940Z,6.10
2023-05-20T05:14:55.649Z,5.85
2023-05-20T05:19:49.854Z,5.82
2023-05-20T05:24:44.486Z,6.05
2023-05-20T05:27:11.303Z,6.32
2023-05-20T05:29:37.951Z,5.85
2023-05-20T05:32:04.833Z,5.90
2023-05-20T05:36:58.449Z,5.97
2023-05-20T05:41:54.282Z,5.95
2023-05-20T05:44:21.456Z,6.07
2023-05-20T05:46:48.839Z,5.55
2023-05-20T05:49:15.773Z,5.95
2023-05-20T05:51:42.503Z,6.43
2023-05-20T05:54:09.293Z,6.90
2023-05-20T05:59:04.233Z,5.75
2023-05-20T06:01:30.983Z,5.93
2023-05-20T06:03:57.805Z,5.40
